Time;durP1;ratioP1;P1;durP2;ratioP2;P2;SDS_P1;SDS_P2;PMS_P1;PMS_P2;Temp;Humidity;BMP_temperature;BMP_pressure;BME280_temperature;BME280_humidity;BME280_pressure;Samples;Min_cycle;Max_cycle;Signal;HPM_P1;HPM_P2
2021/03/27 00:00:30;;;;;;;;;84.00;60.75;;;;;;;;3724614;38;21274;-62
2021/03/27 00:02:59;;;;;;;;;85.75;59.50;;;;;;;;3724790;37;18366;-61
2021/03/27 00:05:27;;;;;;;;;74.50;56.00;;;;;;;;3724410;37;21274;-62
2021/03/27 00:08:13;;;;;;;;;80.00;59.75;;;;;;;;3724652;38;21277;-61
2021/03/27 00:10:42;;;;;;;;;75.00;54.00;;;;;;;;3724768;37;21268;-62
2021/03/27 00:13:24;;;;;;;;;82.00;62.25;;;;;;;;3724829;37;21245;-62
2021/03/27 00:16:06;;;;;;;;;87.50;59.75;;;;;;;;3724203;37;18401;-62
2021/03/27 00:18:41;;;;;;;;;75.50;55.50;;;;;;;;3724698;38;21259;-61
2021/03/27 00:21:30;;;;;;;;;77.50;57.25;;;;;;;;3724804;37;21248;-63
2021/03/27 00:23:58;;;;;;;;;82.75;59.00;;;;;;;;3724663;37;21294;-63
2021/03/27 00:26:33;;;;;;;;;83.25;61.75;;;;;;;;3724820;38;21249;-63
2021/03/27 00:29:12;;;;;;;;;82.50;59.75;;;;;;;;3724609;38;21250;-62
2021/03/27 00:31:40;;;;;;;;;76.00;57.00;;;;;;;;3724881;37;21261;-63
2021/03/27 00:34:07;;;;;;;;;76.75;57.25;;;;;;;;3724877;38;21249;-63
2021/03/27 00:36:36;;;;;;;;;82.25;60.25;;;;;;;;3724415;37;21242;-64
2021/03/27 00:39:27;;;;;;;;;82.75;58.25;;;;;;;;3724238;37;21251;-61
2021/03/27 00:41:58;;;;;;;;;78.75;58.75;;;;;;;;3724517;38;21254;-62
2021/03/27 00:44:29;;;;;;;;;84.25;60.25;;;;;;;;3724722;37;21235;-63
2021/03/27 00:46:56;;;;;;;;;74.50;57.00;;;;;;;;3724279;37;21242;-62
2021/03/27 00:49:25;;;;;;;;;75.75;51.50;;;;;;;;3724552;37;21230;-63
2021/03/27 00:52:17;;;;;;;;;65.00;51.25;;;;;;;;3724838;38;21215;-63
2021/03/27 00:54:55;;;;;;;;;73.75;55.75;;;;;;;;3724666;37;21228;-62
2021/03/27 00:57:31;;;;;;;;;68.50;48.75;;;;;;;;3724760;38;21188;-63
2021/03/27 01:00:18;;;;;;;;;76.75;56.75;;;;;;;;3724865;37;21184;-61
2021/03/27 01:02:47;;;;;;;;;83.25;59.50;;;;;;;;3724701;37;21214;-63
2021/03/27 01:05:15;;;;;;;;;83.75;61.25;;;;;;;;3724703;38;18283;-63
2021/03/27 01:07:42;;;;;;;;;80.50;57.50;;;;;;;;3724733;38;18275;-63
2021/03/27 01:10:20;;;;;;;;;74.25;56.75;;;;;;;;3724620;37;21175;-63
2021/03/27 01:12:48;;;;;;;;;75.25;56.00;;;;;;;;3724698;38;21199;-62
2021/03/27 01:15:26;;;;;;;;;80.50;59.50;;;;;;;;3724684;37;21158;-63
2021/03/27 01:17:53;;;;;;;;;75.25;57.50;;;;;;;;3724705;37;21150;-63
2021/03/27 01:20:22;;;;;;;;;82.25;61.00;;;;;;;;3724588;37;21165;-64
2021/03/27 01:22:49;;;;;;;;;86.50;63.00;;;;;;;;3724821;37;21166;-63
2021/03/27 01:25:21;;;;;;;;;81.50;60.75;;;;;;;;3724791;37;21176;-63
2021/03/27 01:27:52;;;;;;;;;83.25;56.50;;;;;;;;3724487;38;21167;-63
2021/03/27 01:30:38;;;;;;;;;82.50;54.50;;;;;;;;3724655;38;21142;-62
2021/03/27 01:33:14;;;;;;;;;78.50;58.00;;;;;;;;3724697;38;21154;-61
2021/03/27 01:35:44;;;;;;;;;85.25;61.00;;;;;;;;3724605;38;21152;-62
2021/03/27 01:38:15;;;;;;;;;82.25;61.00;;;;;;;;3724629;37;21175;-61
2021/03/27 01:40:58;;;;;;;;;82.25;62.75;;;;;;;;3724674;38;18258;-63
2021/03/27 01:43:36;;;;;;;;;80.50;58.50;;;;;;;;3724729;38;21177;-63
2021/03/27 01:46:21;;;;;;;;;78.00;55.00;;;;;;;;3724798;38;18209;-62
2021/03/27 01:49:00;;;;;;;;;87.25;60.50;;;;;;;;3724536;37;21179;-62
2021/03/27 01:51:44;;;;;;;;;81.00;57.00;;;;;;;;3724679;37;21125;-61
2021/03/27 01:54:11;;;;;;;;;89.75;61.25;;;;;;;;3724669;37;21177;-62
2021/03/27 01:56:50;;;;;;;;;84.25;61.75;;;;;;;;3724860;37;18201;-62
2021/03/27 01:59:34;;;;;;;;;74.25;57.00;;;;;;;;3724447;37;21117;-63
2021/03/27 02:02:06;;;;;;;;;84.25;61.25;;;;;;;;3724321;37;21159;-62
2021/03/27 02:04:37;;;;;;;;;78.50;60.50;;;;;;;;3724659;37;21128;-61
2021/03/27 02:07:25;;;;;;;;;70.50;53.25;;;;;;;;3724677;37;21126;-61
2021/03/27 02:10:17;;;;;;;;;80.00;59.25;;;;;;;;3724655;38;21109;-61
2021/03/27 02:12:51;;;;;;;;;88.25;60.75;;;;;;;;3724827;38;18196;-64
2021/03/27 02:15:21;;;;;;;;;89.50;64.00;;;;;;;;3725792;38;18213;-62
2021/03/27 02:17:50;;;;;;;;;78.75;60.25;;;;;;;;3724963;37;18192;-62
2021/03/27 02:20:38;;;;;;;;;77.25;59.75;;;;;;;;3724716;38;21100;-62
2021/03/27 02:23:27;;;;;;;;;77.00;57.75;;;;;;;;3724498;37;21099;-64
2021/03/27 02:26:12;;;;;;;;;68.75;54.75;;;;;;;;3724670;38;21093;-62
2021/03/27 02:28:42;;;;;;;;;76.00;58.00;;;;;;;;3724656;37;21091;-63
2021/03/27 02:31:20;;;;;;;;;78.75;58.50;;;;;;;;3724737;37;21079;-64
2021/03/27 02:33:55;;;;;;;;;78.25;54.25;;;;;;;;3724872;38;21083;-64
2021/03/27 02:36:41;;;;;;;;;77.75;56.25;;;;;;;;3724788;38;21076;-64
2021/03/27 02:39:25;;;;;;;;;86.00;61.00;;;;;;;;3724284;37;21063;-64
2021/03/27 02:42:16;;;;;;;;;71.25;55.25;;;;;;;;3724212;37;21066;-61
2021/03/27 02:44:52;;;;;;;;;77.25;56.50;;;;;;;;3724800;38;21049;-63
2021/03/27 02:47:38;;;;;;;;;86.75;60.50;;;;;;;;3724261;38;21063;-64
2021/03/27 02:50:27;;;;;;;;;72.00;55.25;;;;;;;;3724895;38;18167;-64
2021/03/27 02:53:10;;;;;;;;;88.50;62.25;;;;;;;;3724666;37;21048;-64
2021/03/27 02:55:44;;;;;;;;;88.25;62.50;;;;;;;;3724974;37;18154;-65
2021/03/27 02:58:31;;;;;;;;;76.75;55.25;;;;;;;;3724779;38;18136;-63
2021/03/27 03:01:10;;;;;;;;;73.75;57.50;;;;;;;;3724799;37;21030;-63
2021/03/27 03:04:08;;;;;;;;;78.25;57.00;;;;;;;;3724610;38;21374;-63
2021/03/27 03:06:42;;;;;;;;;71.50;53.75;;;;;;;;3724761;37;21027;-62
2021/03/27 03:09:14;;;;;;;;;74.50;56.75;;;;;;;;3724793;37;21044;-61
2021/03/27 03:12:06;;;;;;;;;77.25;54.25;;;;;;;;3724825;37;20987;-63
2021/03/27 03:14:41;;;;;;;;;76.50;57.75;;;;;;;;3724755;37;21018;-62
2021/03/27 03:17:15;;;;;;;;;87.50;63.75;;;;;;;;3724743;38;20997;-63
2021/03/27 03:19:51;;;;;;;;;79.50;61.75;;;;;;;;3724911;37;18122;-63
2021/03/27 03:22:27;;;;;;;;;71.75;54.00;;;;;;;;3724694;37;20984;-63
2021/03/27 03:25:01;;;;;;;;;85.50;58.75;;;;;;;;3724791;38;21004;-63
2021/03/27 03:27:41;;;;;;;;;84.50;60.75;;;;;;;;3724256;38;21009;-63
2021/03/27 03:30:35;;;;;;;;;88.00;59.00;;;;;;;;3724872;37;20992;-62
2021/03/27 03:33:19;;;;;;;;;77.25;57.50;;;;;;;;3724728;38;20998;-62
2021/03/27 03:35:54;;;;;;;;;82.75;60.75;;;;;;;;3724908;37;21016;-63
2021/03/27 03:38:38;;;;;;;;;74.50;56.50;;;;;;;;3724855;37;18100;-65
2021/03/27 03:41:14;;;;;;;;;79.50;57.75;;;;;;;;3724724;38;21015;-64
2021/03/27 03:43:58;;;;;;;;;78.00;57.50;;;;;;;;3724807;38;20965;-64
2021/03/27 03:46:29;;;;;;;;;75.50;59.50;;;;;;;;3724853;38;21032;-63
2021/03/27 03:49:15;;;;;;;;;83.25;56.25;;;;;;;;3724816;37;18061;-62
2021/03/27 03:52:07;;;;;;;;;81.25;59.75;;;;;;;;3724642;37;20994;-63
2021/03/27 03:54:51;;;;;;;;;78.50;57.75;;;;;;;;3724839;37;20991;-64
2021/03/27 03:57:39;;;;;;;;;83.50;63.25;;;;;;;;3724791;38;20978;-61
2021/03/27 04:00:25;;;;;;;;;86.75;61.25;;;;;;;;3724888;38;18061;-63
2021/03/27 04:03:15;;;;;;;;;87.00;63.00;;;;;;;;3724796;37;18063;-63
2021/03/27 04:06:03;;;;;;;;;74.50;55.75;;;;;;;;3724892;37;18036;-63
2021/03/27 04:08:47;;;;;;;;;84.75;62.50;;;;;;;;3724680;38;20965;-64
2021/03/27 04:11:31;;;;;;;;;77.75;59.50;;;;;;;;3724998;38;18060;-62
2021/03/27 04:13:58;;;;;;;;;84.50;62.00;;;;;;;;3724844;37;18088;-63
2021/03/27 04:16:26;;;;;;;;;92.75;65.00;;;;;;;;3724737;37;20925;-63
2021/03/27 04:19:10;;;;;;;;;89.50;64.75;;;;;;;;3724791;38;18055;-63
2021/03/27 04:21:42;;;;;;;;;86.25;63.00;;;;;;;;3725054;38;18040;-64
2021/03/27 04:24:11;;;;;;;;;86.50;62.75;;;;;;;;3724447;38;18371;-64
2021/03/27 04:26:57;;;;;;;;;87.25;62.75;;;;;;;;3724867;38;17991;-64
2021/03/27 04:29:42;;;;;;;;;91.75;65.25;;;;;;;;3724944;38;18044;-63
2021/03/27 04:32:28;;;;;;;;;75.75;54.75;;;;;;;;3725073;38;18022;-63
2021/03/27 04:35:08;;;;;;;;;81.00;60.25;;;;;;;;3724883;38;20935;-64
2021/03/27 04:37:52;;;;;;;;;82.50;60.75;;;;;;;;3724953;38;18002;-64
2021/03/27 04:40:40;;;;;;;;;90.75;66.50;;;;;;;;3724925;37;18021;-62
2021/03/27 04:43:24;;;;;;;;;95.00;64.75;;;;;;;;3724805;38;18008;-62
2021/03/27 04:45:52;;;;;;;;;88.00;64.75;;;;;;;;3724964;38;18029;-65
2021/03/27 04:48:30;;;;;;;;;73.00;54.75;;;;;;;;3724892;38;17977;-63
2021/03/27 04:51:24;;;;;;;;;91.25;66.25;;;;;;;;3725483;37;17997;-64
2021/03/27 04:54:03;;;;;;;;;92.50;63.75;;;;;;;;3725058;37;18004;-63
2021/03/27 04:56:57;;;;;;;;;89.25;63.00;;;;;;;;3724964;38;17978;-63
2021/03/27 04:59:49;;;;;;;;;88.50;64.50;;;;;;;;3724758;38;17996;-63
2021/03/27 05:02:16;;;;;;;;;93.25;64.25;;;;;;;;3724768;37;17982;-61
2021/03/27 05:04:51;;;;;;;;;88.75;65.00;;;;;;;;3724877;38;17990;-63
2021/03/27 05:07:19;;;;;;;;;89.25;64.25;;;;;;;;3724673;37;17959;-62
2021/03/27 05:09:58;;;;;;;;;71.25;56.50;;;;;;;;3724920;38;17963;-63
2021/03/27 05:12:35;;;;;;;;;97.00;69.25;;;;;;;;3724971;37;17961;-64
2021/03/27 05:15:06;;;;;;;;;89.25;63.75;;;;;;;;3724795;38;17974;-64
2021/03/27 05:17:51;;;;;;;;;99.25;65.25;;;;;;;;3724777;37;17954;-62
2021/03/27 05:20:26;;;;;;;;;93.00;66.25;;;;;;;;3724988;38;17955;-63
2021/03/27 05:23:23;;;;;;;;;95.00;69.00;;;;;;;;3724790;38;17969;-62
2021/03/27 05:26:15;;;;;;;;;102.25;68.75;;;;;;;;3724832;38;17958;-62
2021/03/27 05:29:02;;;;;;;;;93.50;67.00;;;;;;;;3724894;38;18026;-62
2021/03/27 05:31:33;;;;;;;;;80.00;60.50;;;;;;;;3724899;38;17943;-63
2021/03/27 05:34:08;;;;;;;;;90.00;62.75;;;;;;;;3724454;37;17938;-63
2021/03/27 05:36:47;;;;;;;;;95.50;68.50;;;;;;;;3724926;37;17926;-64
2021/03/27 05:39:30;;;;;;;;;82.00;59.00;;;;;;;;3725063;38;17929;-63
2021/03/27 05:42:14;;;;;;;;;90.25;64.25;;;;;;;;3725110;37;17972;-62
2021/03/27 05:44:58;;;;;;;;;98.00;70.25;;;;;;;;3724885;37;17965;-62
2021/03/27 05:47:44;;;;;;;;;96.00;68.75;;;;;;;;3725040;37;17954;-63
2021/03/27 05:50:30;;;;;;;;;91.25;67.75;;;;;;;;3724967;37;17934;-65
2021/03/27 05:53:09;;;;;;;;;98.25;68.50;;;;;;;;3725071;37;17898;-62
2021/03/27 05:56:03;;;;;;;;;100.00;70.75;;;;;;;;3724441;37;17933;-62
2021/03/27 05:58:55;;;;;;;;;92.75;69.00;;;;;;;;3724881;38;17922;-63
2021/03/27 06:01:39;;;;;;;;;93.25;68.25;;;;;;;;3725004;38;17919;-61
2021/03/27 06:04:23;;;;;;;;;97.25;69.50;;;;;;;;3724978;37;17917;-64
2021/03/27 06:07:20;;;;;;;;;92.75;68.25;;;;;;;;3724739;37;17952;-63
2021/03/27 06:10:08;;;;;;;;;87.00;65.00;;;;;;;;3724821;38;17884;-62
2021/03/27 06:12:52;;;;;;;;;92.50;67.75;;;;;;;;3724884;37;17909;-61
2021/03/27 06:15:44;;;;;;;;;88.50;62.75;;;;;;;;3724649;38;17901;-62
2021/03/27 06:18:24;;;;;;;;;83.00;64.75;;;;;;;;3724819;38;17889;-63
2021/03/27 06:21:25;;;;;;;;;91.75;64.00;;;;;;;;3724965;37;17880;-62
2021/03/27 06:23:55;;;;;;;;;94.00;66.25;;;;;;;;3724996;37;17892;-62
2021/03/27 06:26:39;;;;;;;;;89.25;65.00;;;;;;;;3725101;37;17870;-63
2021/03/27 06:29:28;;;;;;;;;82.25;59.75;;;;;;;;3724955;37;17851;-62
2021/03/27 06:32:07;;;;;;;;;80.25;57.75;;;;;;;;3730519;37;17935;-61
2021/03/27 06:35:11;;;;;;;;;79.25;56.75;;;;;;;;3733339;38;20754;-61
2021/03/27 06:37:50;;;;;;;;;76.75;58.50;;;;;;;;3734321;37;20752;-64
2021/03/27 06:40:34;;;;;;;;;83.75;58.25;;;;;;;;3731906;37;20753;-60
2021/03/27 06:43:29;;;;;;;;;70.50;54.00;;;;;;;;3730099;37;20789;-61
2021/03/27 06:46:14;;;;;;;;;76.00;57.25;;;;;;;;3730375;37;20760;-60
2021/03/27 06:48:58;;;;;;;;;74.25;55.50;;;;;;;;3724956;37;20761;-62
2021/03/27 06:51:47;;;;;;;;;73.50;56.00;;;;;;;;3725089;38;20781;-62
2021/03/27 06:54:25;;;;;;;;;87.75;60.25;;;;;;;;3725087;38;20723;-60
2021/03/27 06:57:09;;;;;;;;;79.50;58.00;;;;;;;;3724975;38;20725;-62
2021/03/27 06:59:53;;;;;;;;;83.00;60.00;;;;;;;;3725035;37;20754;-60
2021/03/27 07:02:27;;;;;;;;;74.50;55.00;;;;;;;;3724849;38;20791;-61
2021/03/27 07:05:11;;;;;;;;;80.00;57.25;;;;;;;;3724890;38;20716;-62
2021/03/27 07:07:56;;;;;;;;;83.75;59.75;;;;;;;;3724598;38;20745;-62
2021/03/27 07:10:40;;;;;;;;;77.00;57.00;;;;;;;;3724693;37;20728;-60
2021/03/27 07:13:32;;;;;;;;;73.00;54.25;;;;;;;;3724704;37;20762;-61
2021/03/27 07:16:04;;;;;;;;;74.75;52.00;;;;;;;;3724881;38;20732;-63
2021/03/27 07:18:56;;;;;;;;;77.25;57.00;;;;;;;;3724973;38;20691;-61
2021/03/27 07:21:35;;;;;;;;;70.25;54.25;;;;;;;;3724686;38;20706;-62
2021/03/27 07:24:06;;;;;;;;;74.75;54.25;;;;;;;;3724951;38;20708;-61
2021/03/27 07:27:01;;;;;;;;;76.25;56.75;;;;;;;;3725027;38;20688;-60
2021/03/27 07:29:46;;;;;;;;;74.25;54.75;;;;;;;;3725013;37;20703;-62
2021/03/27 07:32:30;;;;;;;;;72.25;53.25;;;;;;;;3724844;37;20702;-63
2021/03/27 07:35:13;;;;;;;;;73.50;52.00;;;;;;;;3724869;37;20719;-61
2021/03/27 07:37:57;;;;;;;;;71.75;53.00;;;;;;;;3724750;37;20686;-63
2021/03/27 07:40:51;;;;;;;;;73.75;57.00;;;;;;;;3724941;38;20716;-62
2021/03/27 07:43:40;;;;;;;;;73.75;55.00;;;;;;;;3724882;38;20692;-62
2021/03/27 07:46:22;;;;;;;;;77.75;56.25;;;;;;;;3724917;38;20684;-63
2021/03/27 07:49:09;;;;;;;;;71.75;54.75;;;;;;;;3723675;38;20660;-61
2021/03/27 07:51:53;;;;;;;;;73.25;55.25;;;;;;;;3724548;37;20642;-63
2021/03/27 07:54:47;;;;;;;;;72.25;52.50;;;;;;;;3724704;37;20683;-65
2021/03/27 07:57:39;;;;;;;;;81.75;61.75;;;;;;;;3724685;37;20643;-63
2021/03/27 08:00:23;;;;;;;;;69.50;52.00;;;;;;;;3724814;37;20637;-64
2021/03/27 08:03:26;;;;;;;;;74.00;55.25;;;;;;;;3724812;37;20698;-63
2021/03/27 08:06:12;;;;;;;;;71.50;52.75;;;;;;;;3724954;38;20625;-62
2021/03/27 08:09:06;;;;;;;;;68.25;53.00;;;;;;;;3724845;38;20652;-64
2021/03/27 08:11:54;;;;;;;;;69.25;52.75;;;;;;;;3724846;38;20629;-63
2021/03/27 08:14:38;;;;;;;;;74.25;53.75;;;;;;;;3724912;37;20625;-64
2021/03/27 08:17:23;;;;;;;;;71.75;53.75;;;;;;;;3724905;38;20666;-65
2021/03/27 08:20:21;;;;;;;;;68.50;51.25;;;;;;;;3724928;37;20616;-63
2021/03/27 08:23:05;;;;;;;;;79.50;56.00;;;;;;;;3724848;38;20603;-62
2021/03/27 08:25:35;;;;;;;;;68.50;51.50;;;;;;;;3724942;38;20633;-65
2021/03/27 08:28:17;;;;;;;;;74.00;55.75;;;;;;;;3724754;38;20589;-62
2021/03/27 08:31:23;;;;;;;;;70.75;51.75;;;;;;;;3725432;38;20603;-66
2021/03/27 08:34:24;;;;;;;;;69.00;52.25;;;;;;;;3724885;37;20618;-64
2021/03/27 08:37:18;;;;;;;;;74.50;56.00;;;;;;;;3724129;37;20620;-64
2021/03/27 08:40:16;;;;;;;;;69.25;51.75;;;;;;;;3724763;37;20607;-62
2021/03/27 08:43:00;;;;;;;;;41.50;32.75;;;;;;;;3724793;38;20581;-62
2021/03/27 08:45:57;;;;;;;;;71.75;52.25;;;;;;;;3724696;38;20562;-65
2021/03/27 08:48:43;;;;;;;;;61.25;49.25;;;;;;;;3724912;37;20602;-64
2021/03/27 08:51:28;;;;;;;;;67.75;52.00;;;;;;;;3724653;37;20569;-64
2021/03/27 08:54:12;;;;;;;;;69.25;52.25;;;;;;;;3724677;38;20655;-62
2021/03/27 08:56:56;;;;;;;;;68.00;49.50;;;;;;;;3724911;38;20617;-66
2021/03/27 08:59:40;;;;;;;;;67.50;49.75;;;;;;;;3724540;37;20626;-64
2021/03/27 09:02:24;;;;;;;;;70.00;54.50;;;;;;;;3724715;37;20588;-64
2021/03/27 09:05:02;;;;;;;;;71.25;50.50;;;;;;;;3724686;37;20597;-65
2021/03/27 09:07:52;;;;;;;;;69.50;50.50;;;;;;;;3724649;37;20533;-66
2021/03/27 09:10:41;;;;;;;;;70.75;53.25;;;;;;;;3724241;37;20571;-66
2021/03/27 09:13:24;;;;;;;;;66.25;50.00;;;;;;;;3724873;37;20554;-65
2021/03/27 09:16:13;;;;;;;;;66.00;50.25;;;;;;;;3724709;37;20602;-64
2021/03/27 09:18:46;;;;;;;;;61.25;46.50;;;;;;;;3725123;38;20538;-61
2021/03/27 09:21:37;;;;;;;;;68.50;49.50;;;;;;;;3724856;37;20574;-66
2021/03/27 09:24:18;;;;;;;;;70.25;53.00;;;;;;;;3724777;37;20546;-64
2021/03/27 09:27:01;;;;;;;;;68.75;52.50;;;;;;;;3724945;37;20547;-63
2021/03/27 09:29:45;;;;;;;;;60.75;49.25;;;;;;;;3725170;38;20577;-64
2021/03/27 09:32:29;;;;;;;;;65.25;49.50;;;;;;;;3724663;38;20556;-61
2021/03/27 09:35:11;;;;;;;;;64.75;49.00;;;;;;;;3724854;38;20521;-64
2021/03/27 09:37:41;;;;;;;;;68.00;51.75;;;;;;;;3724865;37;20508;-61
2021/03/27 09:40:35;;;;;;;;;68.75;51.75;;;;;;;;3724971;37;20525;-63
2021/03/27 09:43:20;;;;;;;;;62.75;49.00;;;;;;;;3724951;37;20517;-64
2021/03/27 09:46:04;;;;;;;;;65.50;49.25;;;;;;;;3724943;38;20497;-60
2021/03/27 09:48:44;;;;;;;;;63.50;47.50;;;;;;;;3724897;37;20562;-62
2021/03/27 09:51:29;;;;;;;;;65.25;48.75;;;;;;;;3724496;38;20517;-64
2021/03/27 09:54:27;;;;;;;;;60.50;47.00;;;;;;;;3724488;38;21512;-67
2021/03/27 09:57:04;;;;;;;;;67.75;51.50;;;;;;;;3724439;37;21486;-66
2021/03/27 10:00:04;;;;;;;;;66.50;48.00;;;;;;;;3724234;38;21484;-65
2021/03/27 10:02:56;;;;;;;;;57.50;46.00;;;;;;;;3726701;37;20524;-67
2021/03/27 10:05:35;;;;;;;;;64.75;49.00;;;;;;;;3724697;38;21492;-66
2021/03/27 10:08:29;;;;;;;;;60.50;45.50;;;;;;;;3724455;38;21487;-65
2021/03/27 10:11:12;;;;;;;;;57.50;44.75;;;;;;;;3725085;37;20498;-65
2021/03/27 10:13:47;;;;;;;;;60.00;47.00;;;;;;;;3724158;38;21467;-68
2021/03/27 10:16:28;;;;;;;;;59.50;46.25;;;;;;;;3724239;37;21482;-65
2021/03/27 10:19:30;;;;;;;;;57.00;44.25;;;;;;;;3724772;37;21478;-68
2021/03/27 10:22:09;;;;;;;;;58.00;45.00;;;;;;;;3724673;37;21466;-65
2021/03/27 10:25:06;;;;;;;;;54.00;44.50;;;;;;;;3724940;38;21433;-67
2021/03/27 10:27:50;;;;;;;;;51.25;40.25;;;;;;;;3724894;37;21479;-62
2021/03/27 10:30:38;;;;;;;;;50.50;41.25;;;;;;;;3724911;38;21489;-63
2021/03/27 10:33:11;;;;;;;;;51.00;38.00;;;;;;;;3724894;37;21454;-63
2021/03/27 10:35:51;;;;;;;;;55.25;46.00;;;;;;;;3724895;37;21440;-65
2021/03/27 10:38:48;;;;;;;;;55.50;43.75;;;;;;;;3725047;38;21436;-62
2021/03/27 10:41:25;;;;;;;;;54.00;39.50;;;;;;;;3725149;38;21445;-64
2021/03/27 10:44:23;;;;;;;;;51.00;41.75;;;;;;;;3725055;38;21420;-62
2021/03/27 10:47:09;;;;;;;;;54.00;43.50;;;;;;;;3724893;38;21428;-62
2021/03/27 10:49:48;;;;;;;;;57.50;43.75;;;;;;;;3725193;37;21465;-63
2021/03/27 10:52:22;;;;;;;;;49.75;39.25;;;;;;;;3725027;37;21420;-64
2021/03/27 10:55:25;;;;;;;;;56.75;43.50;;;;;;;;3724310;38;21423;-67
2021/03/27 10:58:16;;;;;;;;;51.75;42.50;;;;;;;;3724528;37;21435;-65
2021/03/27 11:01:14;;;;;;;;;55.00;42.25;;;;;;;;3724449;38;21414;-66
2021/03/27 11:03:58;;;;;;;;;49.00;40.50;;;;;;;;3724777;37;21426;-64
2021/03/27 11:06:46;;;;;;;;;56.75;44.75;;;;;;;;3725141;38;21451;-64
2021/03/27 11:09:46;;;;;;;;;55.50;42.00;;;;;;;;3723940;37;21393;-62
2021/03/27 11:12:31;;;;;;;;;55.50;43.25;;;;;;;;3724158;38;21409;-62
2021/03/27 11:15:19;;;;;;;;;53.50;40.50;;;;;;;;3724393;37;21424;-62
2021/03/27 11:18:07;;;;;;;;;53.00;40.00;;;;;;;;3724772;38;21420;-64
2021/03/27 11:20:52;;;;;;;;;50.25;40.00;;;;;;;;3724831;38;21364;-62
2021/03/27 11:23:42;;;;;;;;;46.50;37.50;;;;;;;;3724958;37;21394;-62
2021/03/27 11:26:34;;;;;;;;;54.75;43.00;;;;;;;;3724762;38;21325;-64
2021/03/27 11:29:27;;;;;;;;;51.00;41.00;;;;;;;;3724335;38;21385;-62
2021/03/27 11:32:00;;;;;;;;;53.00;42.50;;;;;;;;3725095;37;21370;-61
2021/03/27 11:34:36;;;;;;;;;60.25;45.25;;;;;;;;3724891;38;21368;-61
2021/03/27 11:37:04;;;;;;;;;49.25;39.50;;;;;;;;3724945;38;21349;-64
2021/03/27 11:39:53;;;;;;;;;53.50;43.75;;;;;;;;3725068;38;21371;-65
2021/03/27 11:42:44;;;;;;;;;53.50;42.00;;;;;;;;3725377;37;21336;-64
2021/03/27 11:45:16;;;;;;;;;54.25;42.25;;;;;;;;3725250;37;21345;-65
2021/03/27 11:48:00;;;;;;;;;52.00;41.00;;;;;;;;3724926;37;21361;-63
2021/03/27 11:50:54;;;;;;;;;56.25;44.00;;;;;;;;3725225;38;21368;-63
2021/03/27 11:53:29;;;;;;;;;48.50;38.50;;;;;;;;3724974;37;21360;-64
2021/03/27 11:56:18;;;;;;;;;51.25;41.25;;;;;;;;3725184;37;21332;-63
2021/03/27 12:01:55;;;;;;;;;56.00;44.00;;;;;;;;3725339;37;21253;-65
2021/03/27 12:04:40;;;;;;;;;53.50;42.50;;;;;;;;3725275;37;21341;-66
2021/03/27 12:07:32;;;;;;;;;52.00;41.25;;;;;;;;3725175;38;21318;-66
2021/03/27 12:10:21;;;;;;;;;53.25;43.50;;;;;;;;3725015;37;21311;-65
2021/03/27 12:13:10;;;;;;;;;51.50;39.75;;;;;;;;3725198;38;21332;-69
2021/03/27 12:15:48;;;;;;;;;53.25;43.00;;;;;;;;3725232;37;21336;-64
2021/03/27 12:18:34;;;;;;;;;54.75;42.75;;;;;;;;3725224;38;21339;-65
2021/03/27 12:21:14;;;;;;;;;55.50;42.25;;;;;;;;3724669;38;21296;-64
2021/03/27 12:23:53;;;;;;;;;50.75;41.50;;;;;;;;3725156;37;21329;-64
2021/03/27 12:26:36;;;;;;;;;54.25;43.00;;;;;;;;3725108;37;21315;-65
2021/03/27 12:29:15;;;;;;;;;52.00;39.75;;;;;;;;3725145;38;21318;-64
2021/03/27 12:32:09;;;;;;;;;53.50;43.75;;;;;;;;3724762;38;21282;-65
2021/03/27 12:34:58;;;;;;;;;50.00;41.25;;;;;;;;3724710;38;21282;-64
2021/03/27 12:37:28;;;;;;;;;55.50;42.25;;;;;;;;3727242;38;21286;-64
2021/03/27 12:40:12;;;;;;;;;51.00;41.50;;;;;;;;3725215;37;21284;-64
2021/03/27 12:42:47;;;;;;;;;52.75;42.75;;;;;;;;3724799;37;21298;-65
2021/03/27 12:45:18;;;;;;;;;53.00;42.00;;;;;;;;3724943;38;21308;-63
2021/03/27 12:48:06;;;;;;;;;56.00;44.00;;;;;;;;3725112;38;21266;-69
2021/03/27 12:50:57;;;;;;;;;55.00;44.00;;;;;;;;3725198;38;21286;-65
2021/03/27 12:53:44;;;;;;;;;53.75;42.75;;;;;;;;3724446;38;21267;-65
2021/03/27 12:56:30;;;;;;;;;47.75;37.75;;;;;;;;3724969;37;21257;-65
2021/03/27 12:59:17;;;;;;;;;50.75;40.25;;;;;;;;3724786;38;21260;-65
2021/03/27 13:01:55;;;;;;;;;53.75;41.75;;;;;;;;3724758;38;21243;-67
2021/03/27 13:04:33;;;;;;;;;53.00;42.00;;;;;;;;3724349;38;21244;-65
2021/03/27 13:07:23;;;;;;;;;53.25;43.25;;;;;;;;3724386;38;21251;-66
2021/03/27 13:09:56;;;;;;;;;54.50;43.25;;;;;;;;3724998;37;21205;-65
2021/03/27 13:12:47;;;;;;;;;53.00;42.50;;;;;;;;3725393;37;21214;-65
2021/03/27 13:15:33;;;;;;;;;55.00;43.75;;;;;;;;3724997;38;21222;-68
2021/03/27 13:18:18;;;;;;;;;57.50;45.25;;;;;;;;3724672;38;21209;-66
2021/03/27 13:20:54;;;;;;;;;54.75;43.50;;;;;;;;3724800;38;21218;-67
2021/03/27 13:23:34;;;;;;;;;52.50;42.50;;;;;;;;3724968;37;21206;-64
2021/03/27 13:26:04;;;;;;;;;52.25;41.00;;;;;;;;3724770;37;21186;-68
2021/03/27 13:28:33;;;;;;;;;50.50;41.00;;;;;;;;3724792;37;21178;-63
2021/03/27 13:31:13;;;;;;;;;54.00;41.25;;;;;;;;3724858;37;21210;-67
2021/03/27 13:33:47;;;;;;;;;51.50;38.50;;;;;;;;3725232;37;21216;-65
2021/03/27 13:36:26;;;;;;;;;50.25;41.50;;;;;;;;3725277;38;21192;-63
2021/03/27 13:38:56;;;;;;;;;55.50;42.50;;;;;;;;3724474;37;21208;-64
2021/03/27 13:41:56;;;;;;;;;55.00;42.00;;;;;;;;3725071;38;21189;-67
2021/03/27 13:44:50;;;;;;;;;55.75;44.50;;;;;;;;3725220;38;21182;-63
2021/03/27 13:47:42;;;;;;;;;51.25;39.50;;;;;;;;3724916;37;21179;-63
2021/03/27 13:50:27;;;;;;;;;55.75;43.75;;;;;;;;3724508;37;21196;-66
2021/03/27 13:53:00;;;;;;;;;53.25;41.50;;;;;;;;3724691;38;21178;-64
2021/03/27 13:55:35;;;;;;;;;51.00;41.50;;;;;;;;3725125;37;21170;-64
2021/03/27 13:58:48;;;;;;;;;56.25;45.25;;;;;;;;3725369;37;21184;-64
2021/03/27 14:01:31;;;;;;;;;55.75;44.00;;;;;;;;3725139;37;21157;-65
2021/03/27 14:04:23;;;;;;;;;52.75;43.25;;;;;;;;3725249;37;21194;-66
2021/03/27 14:07:02;;;;;;;;;55.50;43.25;;;;;;;;3725171;38;21147;-64
2021/03/27 14:09:50;;;;;;;;;54.00;41.50;;;;;;;;3725449;38;21149;-69
2021/03/27 14:12:47;;;;;;;;;51.75;39.75;;;;;;;;3725020;38;21143;-64
2021/03/27 14:15:29;;;;;;;;;50.25;40.00;;;;;;;;3725023;38;21138;-64
2021/03/27 14:18:35;;;;;;;;;53.25;41.75;;;;;;;;3725245;38;21129;-65
2021/03/27 14:21:19;;;;;;;;;53.75;40.75;;;;;;;;3725190;38;21131;-67
2021/03/27 14:24:08;;;;;;;;;51.75;41.50;;;;;;;;3725384;38;21124;-65
2021/03/27 14:26:57;;;;;;;;;53.25;41.00;;;;;;;;3725334;37;21119;-67
2021/03/27 14:29:32;;;;;;;;;50.75;41.25;;;;;;;;3725442;38;21148;-66
2021/03/27 14:32:12;;;;;;;;;51.25;40.75;;;;;;;;3725539;37;21105;-65
2021/03/27 14:35:06;;;;;;;;;54.50;40.75;;;;;;;;3725131;37;21113;-65
2021/03/27 14:37:38;;;;;;;;;55.25;44.75;;;;;;;;3725285;37;21094;-65
2021/03/27 14:40:26;;;;;;;;;54.75;44.00;;;;;;;;3725494;38;21112;-66
2021/03/27 14:43:11;;;;;;;;;52.00;41.50;;;;;;;;3725297;38;21098;-65
2021/03/27 14:45:53;;;;;;;;;52.75;39.50;;;;;;;;3725183;38;21114;-67
2021/03/27 14:48:31;;;;;;;;;52.25;41.00;;;;;;;;3725589;38;21102;-64
2021/03/27 14:51:04;;;;;;;;;56.00;44.00;;;;;;;;3725448;38;21117;-65
2021/03/27 14:53:50;;;;;;;;;54.25;41.75;;;;;;;;3725470;37;21086;-64
2021/03/27 14:56:34;;;;;;;;;49.00;40.25;;;;;;;;3724851;37;21086;-65
2021/03/27 14:59:14;;;;;;;;;56.25;45.00;;;;;;;;3725270;38;21083;-64
2021/03/27 15:01:41;;;;;;;;;53.25;43.50;;;;;;;;3725156;38;21076;-66
2021/03/27 15:04:10;;;;;;;;;53.25;42.50;;;;;;;;3725327;38;21072;-64
2021/03/27 15:06:56;;;;;;;;;56.00;44.50;;;;;;;;3724705;37;21073;-65
2021/03/27 15:09:28;;;;;;;;;53.00;43.25;;;;;;;;3725212;37;21063;-65
2021/03/27 15:12:11;;;;;;;;;50.75;40.00;;;;;;;;3726640;37;21095;-66
2021/03/27 15:14:44;;;;;;;;;49.00;40.75;;;;;;;;3726313;38;21157;-63
2021/03/27 15:17:38;;;;;;;;;48.50;39.00;;;;;;;;3725615;38;21063;-65
2021/03/27 15:20:17;;;;;;;;;50.25;42.00;;;;;;;;3724303;38;21052;-65
2021/03/27 15:23:01;;;;;;;;;55.00;44.50;;;;;;;;3724769;38;21066;-65
2021/03/27 15:28:40;;;;;;;;;51.75;41.50;;;;;;;;3725186;38;21010;-64
2021/03/27 15:31:18;;;;;;;;;50.50;42.25;;;;;;;;3724689;37;21098;-64
2021/03/27 15:33:53;;;;;;;;;50.75;41.00;;;;;;;;3724866;37;21050;-65
2021/03/27 15:36:28;;;;;;;;;53.25;40.00;;;;;;;;3724784;38;21024;-66
2021/03/27 15:39:12;;;;;;;;;51.75;41.75;;;;;;;;3725041;38;21031;-65
2021/03/27 15:41:50;;;;;;;;;54.50;43.50;;;;;;;;3725111;37;21068;-66
2021/03/27 15:44:29;;;;;;;;;56.00;42.00;;;;;;;;3725388;38;21038;-66
2021/03/27 15:46:56;;;;;;;;;53.00;41.50;;;;;;;;3725096;37;20908;-63
2021/03/27 15:49:28;;;;;;;;;54.75;40.50;;;;;;;;3725425;37;21015;-63